createdAt,value
2022-10-30T00:03:10.684Z,0
2022-10-30T00:08:10.568Z,0
2022-10-30T00:13:10.612Z,0
2022-10-30T00:18:10.578Z,0
2022-10-30T00:23:10.599Z,0
2022-10-30T00:28:10.613Z,0
2022-10-30T00:33:10.603Z,0
2022-10-30T00:38:10.567Z,0
2022-10-30T00:43:10.624Z,0
2022-10-30T00:48:10.546Z,0
2022-10-30T00:53:10.586Z,0
2022-10-30T00:58:10.586Z,0
2022-10-30T01:03:10.611Z,0
2022-10-30T01:08:10.571Z,0
2022-10-30T01:13:10.573Z,0
2022-10-30T01:18:10.581Z,0
2022-10-30T01:23:10.617Z,0
2022-10-30T01:28:10.593Z,0
2022-10-30T01:33:10.578Z,0
2022-10-30T01:38:10.555Z,0
2022-10-30T01:43:10.623Z,0
2022-10-30T01:48:10.588Z,0
2022-10-30T01:53:10.551Z,0
2022-10-30T01:58:10.560Z,0
2022-10-30T02:03:10.615Z,0
2022-10-30T02:08:10.582Z,0
2022-10-30T02:13:10.543Z,0
2022-10-30T02:18:10.566Z,0
2022-10-30T02:23:10.617Z,0
2022-10-30T02:28:10.581Z,0
2022-10-30T02:33:10.652Z,0
2022-10-30T02:38:10.543Z,0
2022-10-30T02:43:10.609Z,0
2022-10-30T02:53:10.574Z,0
2022-10-30T02:58:10.565Z,0
2022-10-30T03:03:10.560Z,0
2022-10-30T03:08:10.537Z,0
2022-10-30T03:13:10.544Z,0
2022-10-30T03:18:10.558Z,0
2022-10-30T03:23:10.575Z,0
2022-10-30T03:28:10.527Z,0
2022-10-30T03:33:10.540Z,0
2022-10-30T03:38:10.546Z,0
2022-10-30T03:43:10.573Z,0
2022-10-30T03:48:10.539Z,0
2022-10-30T03:53:10.543Z,0
2022-10-30T03:58:10.555Z,0
2022-10-30T04:03:10.573Z,0
2022-10-30T04:08:10.532Z,0
2022-10-30T04:13:10.562Z,0
2022-10-30T04:18:10.555Z,0
2022-10-30T04:23:10.576Z,0
2022-10-30T04:28:10.520Z,0
2022-10-30T04:33:10.544Z,0
2022-10-30T04:38:10.528Z,0
2022-10-30T04:43:10.562Z,0
2022-10-30T04:48:10.549Z,0
2022-10-30T04:53:10.548Z,0
2022-10-30T04:58:10.554Z,0
2022-10-30T05:03:10.536Z,0
2022-10-30T05:08:10.520Z,0
2022-10-30T05:13:10.508Z,0
2022-10-30T05:18:10.505Z,0
2022-10-30T05:23:10.524Z,0
2022-10-30T05:28:10.522Z,0
2022-10-30T05:33:10.531Z,0
2022-10-30T05:38:10.519Z,0
2022-10-30T05:43:10.527Z,0
2022-10-30T05:48:10.538Z,0
2022-10-30T05:53:10.542Z,0
2022-10-30T05:58:10.525Z,0
2022-10-30T06:03:10.543Z,0
2022-10-30T06:08:10.505Z,0
2022-10-30T06:13:10.504Z,0
2022-10-30T06:18:10.561Z,0
2022-10-30T06:23:10.532Z,3
2022-10-30T06:28:10.520Z,5
2022-10-30T06:33:10.530Z,9
2022-10-30T06:38:10.525Z,11
2022-10-30T06:43:10.542Z,12
2022-10-30T06:48:10.518Z,11
2022-10-30T06:53:10.494Z,15
2022-10-30T06:58:10.505Z,15
2022-10-30T07:03:10.538Z,20
2022-10-30T07:08:10.481Z,24
2022-10-30T07:13:10.523Z,24
2022-10-30T07:18:10.518Z,26
2022-10-30T07:23:10.527Z,30
2022-10-30T07:28:10.501Z,32
2022-10-30T07:33:10.506Z,38
2022-10-30T07:38:10.509Z,38
2022-10-30T07:43:10.538Z,44
2022-10-30T07:48:10.509Z,45
2022-10-30T07:53:10.514Z,86
2022-10-30T07:58:10.477Z,188
2022-10-30T08:03:10.514Z,254
2022-10-30T08:08:10.482Z,295
2022-10-30T08:13:10.470Z,309
2022-10-30T08:18:10.477Z,321
2022-10-30T08:23:10.539Z,345
2022-10-30T08:28:10.463Z,363
2022-10-30T08:33:10.510Z,377
2022-10-30T08:38:10.483Z,391
2022-10-30T08:43:10.509Z,398
2022-10-30T08:48:10.485Z,405
2022-10-30T08:53:10.476Z,415
2022-10-30T08:58:10.462Z,414
2022-10-30T09:03:10.480Z,412
2022-10-30T09:08:10.465Z,421
2022-10-30T09:13:10.486Z,413
2022-10-30T09:18:10.490Z,437
2022-10-30T09:23:10.496Z,449
2022-10-30T09:28:10.505Z,457
2022-10-30T09:33:10.462Z,411
2022-10-30T09:38:10.484Z,434
2022-10-30T09:43:10.507Z,447
2022-10-30T09:48:10.471Z,420
2022-10-30T09:53:10.488Z,402
2022-10-30T09:58:10.451Z,400
2022-10-30T10:03:10.467Z,403
2022-10-30T10:08:10.464Z,429
2022-10-30T10:13:10.487Z,435
2022-10-30T10:18:10.494Z,453
2022-10-30T10:23:10.489Z,485
2022-10-30T10:28:10.483Z,381
2022-10-30T10:33:10.766Z,474
2022-10-30T10:38:10.714Z,497
2022-10-30T10:43:11.362Z,430
2022-10-30T10:48:11.406Z,407
2022-10-30T10:53:11.603Z,456
2022-10-30T10:58:12.163Z,513
2022-10-30T11:03:14.064Z,533
2022-10-30T11:08:14.473Z,533
2022-10-30T11:13:14.225Z,536
2022-10-30T11:18:14.189Z,544
2022-10-30T11:23:15.126Z,475
2022-10-30T11:28:15.101Z,532
2022-10-30T11:33:15.372Z,435
2022-10-30T11:38:15.586Z,539
2022-10-30T11:43:15.879Z,567
2022-10-30T11:48:16.224Z,524
2022-10-30T11:53:15.863Z,507
2022-10-30T11:58:15.850Z,523
2022-10-30T12:03:15.861Z,483
2022-10-30T12:08:15.883Z,510
2022-10-30T12:13:16.384Z,511
2022-10-30T12:18:16.655Z,440
2022-10-30T12:23:17.591Z,444
2022-10-30T12:28:17.601Z,404
2022-10-30T12:33:17.640Z,446
2022-10-30T12:38:17.605Z,467
2022-10-30T12:43:18.979Z,411
2022-10-30T12:48:18.938Z,326
2022-10-30T12:53:18.935Z,354
2022-10-30T12:58:19.727Z,384
2022-10-30T13:03:19.746Z,351
2022-10-30T13:08:19.943Z,364
2022-10-30T13:13:19.948Z,278
2022-10-30T13:18:19.944Z,227
2022-10-30T13:23:20.216Z,249
2022-10-30T13:28:20.206Z,280
2022-10-30T13:33:20.170Z,268
2022-10-30T13:38:20.178Z,234
2022-10-30T13:43:20.226Z,197
2022-10-30T13:48:20.206Z,219
2022-10-30T13:53:20.165Z,203
2022-10-30T13:58:20.178Z,146
2022-10-30T14:03:20.244Z,116
2022-10-30T14:08:20.222Z,96
2022-10-30T14:13:20.179Z,90
2022-10-30T14:18:20.200Z,74
2022-10-30T14:23:20.235Z,70
2022-10-30T14:28:20.209Z,64
2022-10-30T14:33:20.214Z,61
2022-10-30T14:38:20.219Z,56
2022-10-30T14:43:20.198Z,52
2022-10-30T14:48:20.167Z,47
2022-10-30T14:53:20.188Z,41
2022-10-30T14:58:20.199Z,37
2022-10-30T15:03:20.224Z,35
2022-10-30T15:08:20.181Z,29
2022-10-30T15:13:20.214Z,23
2022-10-30T15:18:20.194Z,19
2022-10-30T15:23:20.208Z,13
2022-10-30T15:28:20.194Z,13
2022-10-30T15:33:20.155Z,12
2022-10-30T15:38:20.192Z,11
2022-10-30T15:43:20.193Z,8
2022-10-30T15:48:20.175Z,2
2022-10-30T15:53:20.180Z,0
2022-10-30T15:58:20.429Z,0
2022-10-30T16:03:20.189Z,0
2022-10-30T16:08:20.161Z,0
2022-10-30T16:13:20.166Z,0
2022-10-30T16:18:20.196Z,0
2022-10-30T16:23:20.185Z,0
2022-10-30T16:28:20.167Z,0
2022-10-30T16:33:20.181Z,0
2022-10-30T16:38:20.203Z,0
2022-10-30T16:43:20.177Z,0
2022-10-30T16:48:20.177Z,0
2022-10-30T16:53:20.185Z,0
2022-10-30T16:58:20.194Z,0
2022-10-30T17:03:20.203Z,0
2022-10-30T17:08:20.157Z,0
2022-10-30T17:13:20.149Z,0
2022-10-30T17:18:20.185Z,0
2022-10-30T17:23:20.217Z,0
2022-10-30T17:28:20.188Z,0
2022-10-30T17:33:20.174Z,0
2022-10-30T17:38:20.150Z,0
2022-10-30T17:43:20.206Z,0
2022-10-30T17:48:20.155Z,0
2022-10-30T17:53:20.169Z,0
2022-10-30T17:58:20.151Z,0
2022-10-30T18:03:20.206Z,0
2022-10-30T18:08:20.169Z,0
2022-10-30T18:13:20.158Z,0
2022-10-30T18:18:20.191Z,0
2022-10-30T18:23:46.561Z,0
2022-10-30T18:28:20.149Z,0
2022-10-30T18:33:20.152Z,0
2022-10-30T18:38:20.183Z,0
2022-10-30T18:43:20.197Z,0
2022-10-30T18:48:20.165Z,0
2022-10-30T18:53:20.146Z,0
2022-10-30T18:58:20.129Z,0
2022-10-30T19:03:20.193Z,0
2022-10-30T19:08:20.131Z,0
2022-10-30T19:13:20.587Z,0
2022-10-30T19:18:20.143Z,0
2022-10-30T19:23:20.199Z,0
2022-10-30T19:28:20.143Z,0
2022-10-30T19:33:20.126Z,0
2022-10-30T19:38:20.139Z,0
2022-10-30T19:43:20.144Z,0
2022-10-30T19:48:34.506Z,0
2022-10-30T19:53:20.125Z,0
2022-10-30T19:58:22.145Z,0
2022-10-30T20:03:20.240Z,0
2022-10-30T20:08:20.154Z,0
2022-10-30T20:13:20.143Z,0
2022-10-30T20:18:20.138Z,0
2022-10-30T20:23:20.132Z,0
2022-10-30T20:28:20.113Z,0
2022-10-30T20:33:20.139Z,0
2022-10-30T20:38:20.111Z,0
2022-10-30T20:43:20.144Z,0
2022-10-30T20:48:20.106Z,0
2022-10-30T20:53:20.112Z,0
2022-10-30T20:58:20.148Z,0
2022-10-30T21:03:20.155Z,0
2022-10-30T21:08:20.105Z,0
2022-10-30T21:13:20.140Z,0
2022-10-30T21:18:20.108Z,0
2022-10-30T21:23:20.133Z,0
2022-10-30T21:28:20.102Z,0
2022-10-30T21:33:20.109Z,0
2022-10-30T21:38:20.090Z,0
2022-10-30T21:43:20.130Z,0
2022-10-30T21:48:20.130Z,0
2022-10-30T21:53:20.139Z,0
2022-10-30T21:58:20.097Z,0
2022-10-30T22:03:20.098Z,0
2022-10-30T22:08:20.101Z,0
2022-10-30T22:13:20.088Z,0
2022-10-30T22:18:20.097Z,0
2022-10-30T22:23:20.111Z,0
2022-10-30T22:28:20.135Z,0
2022-10-30T22:33:20.107Z,0
2022-10-30T22:38:20.083Z,0
2022-10-30T22:43:20.130Z,0
2022-10-30T22:48:20.086Z,0
2022-10-30T22:53:20.098Z,0
2022-10-30T22:58:20.119Z,0
2022-10-30T23:03:20.161Z,0
2022-10-30T23:08:20.086Z,0
2022-10-30T23:13:20.101Z,0
2022-10-30T23:18:20.089Z,0
2022-10-30T23:23:20.113Z,0
2022-10-30T23:28:20.114Z,0
2022-10-30T23:33:20.084Z,0
2022-10-30T23:38:20.087Z,0
2022-10-30T23:43:20.102Z,0
2022-10-30T23:48:20.101Z,0
2022-10-30T23:53:20.065Z,0
2022-10-30T23:58:20.101Z,0
